createdAt,value
2018-07-04T00:01:13.345Z,101235.89
2018-07-04T00:03:52.902Z,101230.42
2018-07-04T00:06:38.142Z,101229.53
2018-07-04T00:09:23.574Z,101233.67
2018-07-04T00:12:08.961Z,101233.26
2018-07-04T00:14:54.550Z,101230.36
2018-07-04T00:17:40.533Z,101236.94
2018-07-04T00:20:31.925Z,101236.70
2018-07-04T00:23:17.322Z,101235.86
2018-07-04T00:26:02.705Z,101231.23
2018-07-04T00:28:48.192Z,101230.16
2018-07-04T00:31:34.090Z,101234.44
2018-07-04T00:34:19.596Z,101233.23
2018-07-04T00:37:05.087Z,101231.14
2018-07-04T00:39:50.420Z,101225.30
2018-07-04T00:42:35.772Z,101221.81
2018-07-04T00:45:21.246Z,101227.19
2018-07-04T00:48:06.552Z,101228.07
2018-07-04T00:50:52.016Z,101224.80
2018-07-04T00:53:37.718Z,101223.29
2018-07-04T00:56:23.339Z,101217.73
2018-07-04T00:59:08.906Z,101219.04
2018-07-04T01:01:54.535Z,101212.31
2018-07-04T01:04:40.363Z,101211.91
2018-07-04T01:07:25.788Z,101201.64
2018-07-04T01:10:10.997Z,101199.88
2018-07-04T01:13:00.625Z,101197.97
2018-07-04T01:15:45.967Z,101189.77
2018-07-04T01:18:31.298Z,101185.59
2018-07-04T01:21:16.881Z,101186.30
2018-07-04T01:24:02.310Z,101186.45
2018-07-04T01:26:47.930Z,101185.59
2018-07-04T01:29:33.506Z,101189.79
2018-07-04T01:32:19.136Z,101198.17
2018-07-04T01:35:04.666Z,101189.72
2018-07-04T01:37:49.985Z,101181.84
2018-07-04T01:40:35.328Z,101179.99
2018-07-04T01:43:20.673Z,101176.28
2018-07-04T01:46:06.062Z,101176.02
2018-07-04T01:48:51.549Z,101176.28
2018-07-04T01:51:36.937Z,101171.77
2018-07-04T01:54:22.386Z,101169.32
2018-07-04T01:57:07.731Z,101166.55
2018-07-04T01:59:53.203Z,101168.23
2018-07-04T02:02:38.609Z,101160.91
2018-07-04T02:05:24.002Z,101161.31
2018-07-04T02:08:09.633Z,101159.58
2018-07-04T02:10:49.231Z,101159.83
2018-07-04T02:13:34.756Z,101157.55
2018-07-04T02:16:20.196Z,101157.36
2018-07-04T02:19:05.665Z,101164.23
2018-07-04T02:21:51.048Z,101156.86
2018-07-04T02:24:36.550Z,101160.07
2018-07-04T02:27:22.216Z,101156.95
2018-07-04T02:30:07.718Z,101160.69
2018-07-04T02:32:53.069Z,101157.53
2018-07-04T02:35:38.478Z,101151.59
2018-07-04T02:38:23.981Z,101150.91
2018-07-04T02:41:09.533Z,101154.33
2018-07-04T02:43:54.988Z,101160.86
2018-07-04T02:46:40.465Z,101164.06
2018-07-04T02:49:25.973Z,101163.58
2018-07-04T02:52:11.352Z,101157.94
2018-07-04T02:54:56.989Z,101157.14
2018-07-04T02:57:42.413Z,101157.28
2018-07-04T03:00:27.774Z,101162.50
2018-07-04T03:03:13.209Z,101166.42
2018-07-04T03:05:58.590Z,101158.64
2018-07-04T03:08:44.202Z,101159.20
2018-07-04T03:11:29.820Z,101161.56
2018-07-04T03:14:15.337Z,101155.17
2018-07-04T03:17:00.698Z,101165.80
2018-07-04T03:19:46.139Z,101165.04
2018-07-04T03:22:31.885Z,101161.98
2018-07-04T03:25:17.305Z,101156.77
2018-07-04T03:28:02.594Z,101161.74
2018-07-04T03:30:48.060Z,101152.43
2018-07-04T03:33:33.582Z,101155.56
2018-07-04T03:36:19.005Z,101151.53
2018-07-04T03:39:05.740Z,101152.50
2018-07-04T03:41:51.341Z,101150.80
2018-07-04T03:44:36.803Z,101141.94
2018-07-04T03:47:22.360Z,101141.42
2018-07-04T03:50:07.870Z,101142.91
2018-07-04T03:52:53.364Z,101149.69
2018-07-04T03:55:39.024Z,101146.98
2018-07-04T03:58:24.541Z,101137.05
2018-07-04T04:01:04.083Z,101135.83
2018-07-04T04:03:43.615Z,101140.80
2018-07-04T04:06:28.943Z,101148.23
2018-07-04T04:09:14.376Z,101144.75
2018-07-04T04:11:53.923Z,101148.68
2018-07-04T04:14:39.688Z,101137.25
2018-07-04T04:17:25.067Z,101134.34
2018-07-04T04:20:10.629Z,101137.35
2018-07-04T04:22:56.152Z,101129.98
2018-07-04T04:25:35.681Z,101146.48
2018-07-04T04:28:21.067Z,101154.52
2018-07-04T04:31:06.493Z,101153.06
2018-07-04T04:33:52.113Z,101151.28
2018-07-04T04:36:37.690Z,101157.92
2018-07-04T04:39:23.656Z,101159.55
2018-07-04T04:42:09.092Z,101158.99
2018-07-04T04:44:48.716Z,101162.01
2018-07-04T04:47:34.249Z,101165.15
2018-07-04T04:50:19.769Z,101164.10
2018-07-04T04:53:05.252Z,101164.66
2018-07-04T04:55:50.709Z,101165.45
2018-07-04T04:58:36.264Z,101160.87
2018-07-04T05:01:21.959Z,101158.73
2018-07-04T05:04:07.593Z,101149.41
2018-07-04T05:06:53.184Z,101153.31
2018-07-04T05:09:38.658Z,101164.55
2018-07-04T05:12:24.029Z,101159.86
2018-07-04T05:15:09.603Z,101158.64
2018-07-04T05:17:55.085Z,101154.66
2018-07-04T05:20:40.623Z,101154.66
2018-07-04T05:23:25.873Z,101156.25
2018-07-04T05:26:05.816Z,101150.83
2018-07-04T05:28:51.063Z,101152.89
2018-07-04T05:31:36.821Z,101146.91
2018-07-04T05:34:22.196Z,101149.95
2018-07-04T05:37:07.648Z,101146.16
2018-07-04T05:39:47.088Z,101147.77
2018-07-04T05:42:32.532Z,101150.02
2018-07-04T05:45:17.962Z,101148.02
2018-07-04T05:48:03.080Z,101145.02
2018-07-04T05:50:48.457Z,101148.07
2018-07-04T05:53:33.822Z,101144.42
2018-07-04T05:56:19.352Z,101137.77
2018-07-04T05:59:04.776Z,101144.36
2018-07-04T06:01:50.191Z,101136.62
2018-07-04T06:04:35.623Z,101141.05
2018-07-04T06:07:21.350Z,101143.13
2018-07-04T06:10:06.934Z,101136.53
2018-07-04T06:12:52.280Z,101131.08
2018-07-04T06:15:37.991Z,101137.29
2018-07-04T06:18:23.753Z,101132.42
2018-07-04T06:21:12.719Z,101132.36
2018-07-04T06:23:58.590Z,101132.36
2018-07-04T06:26:38.481Z,101133.66
2018-07-04T06:29:18.131Z,101133.25
2018-07-04T06:32:03.591Z,101129.95
2018-07-04T06:34:49.060Z,101122.06
2018-07-04T06:37:36.210Z,101129.61
2018-07-04T06:40:02.986Z,101130.97
2018-07-04T06:42:29.620Z,101135.00
2018-07-04T06:44:57.892Z,101137.46
2018-07-04T06:47:25.126Z,101129.00
2018-07-04T06:49:51.905Z,101123.09
2018-07-04T06:52:20.771Z,101126.59
2018-07-04T06:54:48.314Z,101120.02
2018-07-04T06:57:15.160Z,101126.25
2018-07-04T06:59:41.838Z,101120.11
2018-07-04T07:02:11.616Z,101120.27
2018-07-04T07:04:57.997Z,101125.91
2018-07-04T07:07:43.535Z,101125.80
2018-07-04T07:10:28.956Z,101126.38
2018-07-04T07:13:14.265Z,101128.09
2018-07-04T07:15:53.974Z,101125.84
2018-07-04T07:18:39.473Z,101132.58
2018-07-04T07:21:24.944Z,101128.16
2018-07-04T07:24:10.316Z,101125.89
2018-07-04T07:26:55.612Z,101122.17
2018-07-04T07:29:41.203Z,101118.05
2018-07-04T07:32:20.692Z,101126.30
2018-07-04T07:35:06.222Z,101126.19
2018-07-04T07:37:45.655Z,101125.91
2018-07-04T07:40:31.137Z,101128.09
2018-07-04T07:43:16.725Z,101124.41
2018-07-04T07:46:02.996Z,101117.98
2018-07-04T07:48:48.624Z,101110.41
2018-07-04T07:51:34.084Z,101115.91
2018-07-04T07:54:19.616Z,101111.21
2018-07-04T07:56:59.186Z,101107.91
2018-07-04T07:59:44.540Z,101107.95
2018-07-04T08:02:29.852Z,101105.14
2018-07-04T08:05:15.846Z,101103.17
2018-07-04T08:08:01.275Z,101098.28
2018-07-04T08:10:47.007Z,101090.47
2018-07-04T08:13:33.259Z,101092.45
2018-07-04T08:16:19.568Z,101088.20
2018-07-04T08:19:07.022Z,101091.50
2018-07-04T08:21:57.045Z,101086.86
2018-07-04T08:24:43.713Z,101090.18
2018-07-04T08:27:29.162Z,101092.92
2018-07-04T08:30:14.656Z,101096.86
2018-07-04T08:33:00.150Z,101087.87
2018-07-04T08:35:45.865Z,101091.59
2018-07-04T08:38:31.480Z,101090.22
2018-07-04T08:41:16.909Z,101094.94
2018-07-04T08:44:02.263Z,101092.17
2018-07-04T08:46:47.650Z,101088.06
2018-07-04T08:49:33.111Z,101085.72
2018-07-04T08:52:18.441Z,101084.53
2018-07-04T08:55:03.780Z,101087.11
2018-07-04T08:57:49.224Z,101090.61
2018-07-04T09:00:28.705Z,101090.21
2018-07-04T09:03:14.112Z,101091.74
2018-07-04T09:05:59.458Z,101094.81
2018-07-04T09:08:44.856Z,101092.64
2018-07-04T09:11:30.437Z,101096.35
2018-07-04T09:14:15.968Z,101091.65
2018-07-04T09:17:01.209Z,101098.32
2018-07-04T09:19:40.741Z,101101.47
2018-07-04T09:22:26.315Z,101095.00
2018-07-04T09:25:11.692Z,101098.28
2018-07-04T09:27:57.376Z,101097.45
2018-07-04T09:30:42.881Z,101102.74
2018-07-04T09:33:28.328Z,101108.05
2018-07-04T09:36:13.762Z,101103.53
2018-07-04T09:38:59.496Z,101101.64
2018-07-04T09:41:46.997Z,101100.86
2018-07-04T09:44:32.602Z,101098.43
2018-07-04T09:47:18.598Z,101100.97
2018-07-04T09:50:04.067Z,101103.38
2018-07-04T09:52:49.526Z,101108.23
2018-07-04T09:55:35.063Z,101112.09
2018-07-04T09:58:20.525Z,101117.89
2018-07-04T10:01:11.534Z,101113.85
2018-07-04T10:03:57.099Z,101108.08
2018-07-04T10:06:43.342Z,101108.90
2018-07-04T10:09:23.321Z,101108.80
2018-07-04T10:12:08.908Z,101114.83
2018-07-04T10:14:54.428Z,101103.98
2018-07-04T10:17:39.962Z,101103.49
2018-07-04T10:20:25.553Z,101108.43
2018-07-04T10:23:05.263Z,101110.22
2018-07-04T10:25:50.823Z,101105.09
2018-07-04T10:28:36.450Z,101106.30
2018-07-04T10:31:21.994Z,101104.31
2018-07-04T10:34:07.724Z,101103.58
2018-07-04T10:36:47.255Z,101096.70
2018-07-04T10:39:26.943Z,101102.35
2018-07-04T10:42:12.399Z,101096.56
2018-07-04T10:44:58.070Z,101091.30
2018-07-04T10:47:37.750Z,101082.27
2018-07-04T10:50:23.130Z,101084.78
2018-07-04T10:53:08.730Z,101081.56
2018-07-04T10:55:54.228Z,101082.53
2018-07-04T10:58:39.981Z,101080.89
2018-07-04T11:01:25.525Z,101078.52
2018-07-04T11:04:05.244Z,101074.78
2018-07-04T11:06:50.726Z,101066.67
2018-07-04T11:09:36.190Z,101061.56
2018-07-04T11:12:21.964Z,101054.62
2018-07-04T11:15:07.454Z,101051.34
2018-07-04T11:17:53.171Z,101048.66
2018-07-04T11:20:38.565Z,101039.58
2018-07-04T11:23:18.074Z,101044.15
2018-07-04T11:26:03.437Z,101036.01
2018-07-04T11:28:48.927Z,101034.58
2018-07-04T11:31:34.520Z,101034.43
2018-07-04T11:34:20.010Z,101031.67
2018-07-04T11:37:05.629Z,101026.47
2018-07-04T11:39:51.197Z,101031.73
2018-07-04T11:42:30.736Z,101015.82
2018-07-04T11:45:10.372Z,101024.03
2018-07-04T11:47:37.473Z,101017.51
2018-07-04T11:50:05.087Z,101018.23
2018-07-04T11:52:32.143Z,101026.17
2018-07-04T11:54:58.856Z,101039.46
2018-07-04T11:57:25.527Z,101042.91
2018-07-04T11:59:52.213Z,101039.50
2018-07-04T12:02:18.874Z,101041.28
2018-07-04T12:05:04.340Z,101046.67
2018-07-04T12:07:30.961Z,101045.49
2018-07-04T12:09:57.631Z,101052.20
2018-07-04T12:12:24.269Z,101049.95
2018-07-04T12:14:51.079Z,101057.30
2018-07-04T12:17:17.919Z,101058.25
2018-07-04T12:19:44.717Z,101067.47
2018-07-04T12:22:11.912Z,101057.56
2018-07-04T12:24:38.736Z,101052.33
2018-07-04T12:27:05.366Z,101051.32
2018-07-04T12:29:32.060Z,101047.76
2018-07-04T12:31:58.749Z,101049.39
2018-07-04T12:34:25.441Z,101049.25
2018-07-04T12:36:52.104Z,101050.23
2018-07-04T12:39:18.731Z,101046.28
2018-07-04T12:41:45.381Z,101049.66
2018-07-04T12:44:12.043Z,101048.74
2018-07-04T12:46:38.694Z,101059.20
2018-07-04T12:49:05.487Z,101056.50
2018-07-04T12:51:33.572Z,101056.84
2018-07-04T12:54:05.959Z,101065.72
2018-07-04T12:56:51.611Z,101064.79
2018-07-04T12:59:37.073Z,101075.78
2018-07-04T13:02:22.534Z,101064.37
2018-07-04T13:05:08.111Z,101063.97
2018-07-04T13:07:53.562Z,101062.34
2018-07-04T13:10:39.039Z,101059.39
2018-07-04T13:13:18.644Z,101052.76
2018-07-04T13:16:04.693Z,101054.02
2018-07-04T13:18:50.112Z,101055.48
2018-07-04T13:21:35.416Z,101056.91
2018-07-04T13:24:20.788Z,101055.71
2018-07-04T13:27:06.252Z,101055.62
2018-07-04T13:29:51.539Z,101062.95
2018-07-04T13:32:37.022Z,101052.20
2018-07-04T13:35:22.544Z,101054.58
2018-07-04T13:38:08.055Z,101055.00
2018-07-04T13:40:53.463Z,101056.28
2018-07-04T13:43:38.942Z,101047.73
2018-07-04T13:46:24.247Z,101052.41
2018-07-04T13:49:04.040Z,101057.65
2018-07-04T13:51:49.720Z,101057.39
2018-07-04T13:54:35.099Z,101057.28
2018-07-04T13:57:20.750Z,101058.38
2018-07-04T14:00:06.168Z,101057.98
2018-07-04T14:02:51.773Z,101060.20
2018-07-04T14:05:37.117Z,101063.41
2018-07-04T14:08:22.611Z,101054.66
2018-07-04T14:11:08.325Z,101052.88
2018-07-04T14:13:53.879Z,101050.58
2018-07-04T14:16:39.299Z,101055.91
2018-07-04T14:19:19.001Z,101059.50
2018-07-04T14:22:04.396Z,101052.08
2018-07-04T14:24:49.838Z,101046.45
2018-07-04T14:27:35.269Z,101046.50
2018-07-04T14:30:14.832Z,101048.99
2018-07-04T14:33:00.384Z,101040.78
2018-07-04T14:35:45.883Z,101043.58
2018-07-04T14:38:25.461Z,101044.08
2018-07-04T14:41:10.751Z,101043.91
2018-07-04T14:43:56.207Z,101036.16
2018-07-04T14:46:41.480Z,101036.83
2018-07-04T14:49:26.820Z,101031.33
2018-07-04T14:52:12.564Z,101021.39
2018-07-04T14:54:58.408Z,101025.27
2018-07-04T14:57:38.030Z,101025.23
2018-07-04T15:00:23.480Z,101025.77
2018-07-04T15:03:09.271Z,101022.48
2018-07-04T15:05:54.530Z,101015.09
2018-07-04T15:08:40.290Z,101005.89
2018-07-04T15:11:25.689Z,101002.06
2018-07-04T15:14:11.123Z,101006.09
2018-07-04T15:16:56.564Z,101006.66
2018-07-04T15:19:42.096Z,101003.81
2018-07-04T15:22:27.576Z,100998.90
2018-07-04T15:25:13.034Z,101000.64
2018-07-04T15:27:58.732Z,100997.57
2018-07-04T15:30:44.171Z,100994.87
2018-07-04T15:33:29.532Z,100988.55
2018-07-04T15:36:15.235Z,100997.68
2018-07-04T15:39:00.588Z,100991.31
2018-07-04T15:41:46.366Z,100993.31
2018-07-04T15:44:31.791Z,100994.98
2018-07-04T15:47:17.165Z,100998.95
2018-07-04T15:49:57.395Z,100995.45
2018-07-04T15:52:43.205Z,100989.58
2018-07-04T15:55:28.677Z,100995.20
2018-07-04T15:58:13.972Z,100990.56
2018-07-04T16:00:59.483Z,100987.09
2018-07-04T16:03:44.877Z,100987.45
2018-07-04T16:06:30.301Z,100985.89
2018-07-04T16:09:15.829Z,100992.48
2018-07-04T16:12:01.084Z,100987.27
2018-07-04T16:14:46.736Z,100993.59
2018-07-04T16:17:32.208Z,100982.39
2018-07-04T16:20:17.432Z,100985.42
2018-07-04T16:23:02.879Z,100984.84
2018-07-04T16:25:43.536Z,100980.02
2018-07-04T16:28:29.146Z,100974.91
2018-07-04T16:31:14.748Z,100977.35
2018-07-04T16:34:00.084Z,100981.09
2018-07-04T16:36:45.760Z,100978.59
2018-07-04T16:39:31.345Z,100977.46
2018-07-04T16:42:16.795Z,100971.66
2018-07-04T16:44:56.880Z,100971.70
2018-07-04T16:47:42.329Z,100969.39
2018-07-04T16:50:21.997Z,100974.78
2018-07-04T16:53:07.259Z,100981.12
2018-07-04T16:55:52.688Z,100977.45
2018-07-04T16:58:38.412Z,100974.83
2018-07-04T17:01:18.146Z,100977.42
2018-07-04T17:04:03.596Z,100973.53
2018-07-04T17:06:49.079Z,100969.42
2018-07-04T17:09:34.475Z,100962.91
2018-07-04T17:12:19.899Z,100958.76
2018-07-04T17:15:05.714Z,100954.55
2018-07-04T17:17:50.905Z,100950.75
2018-07-04T17:20:36.361Z,100942.47
2018-07-04T17:23:21.770Z,100942.06
2018-07-04T17:26:07.367Z,100939.66
2018-07-04T17:28:46.733Z,100936.39
2018-07-04T17:31:32.492Z,100944.40
2018-07-04T17:34:12.266Z,100937.39
2018-07-04T17:36:57.709Z,100928.02
2018-07-04T17:39:43.259Z,100930.59
2018-07-04T17:42:22.784Z,100926.51
2018-07-04T17:45:08.084Z,100929.96
2018-07-04T17:47:53.658Z,100930.31
2018-07-04T17:50:39.130Z,100929.41
2018-07-04T17:53:24.587Z,100927.28
2018-07-04T17:56:09.994Z,100932.03
2018-07-04T17:58:55.619Z,100926.25
2018-07-04T18:01:41.102Z,100931.38
2018-07-04T18:04:26.465Z,100932.67
2018-07-04T18:07:11.924Z,100938.63
2018-07-04T18:09:57.286Z,100930.61
2018-07-04T18:12:42.689Z,100936.79
2018-07-04T18:15:28.269Z,100928.20
2018-07-04T18:18:13.657Z,100928.00
2018-07-04T18:21:03.561Z,100921.34
2018-07-04T18:23:43.404Z,100927.61
2018-07-04T18:26:23.215Z,100933.27
2018-07-04T18:29:09.000Z,100929.56
2018-07-04T18:31:54.562Z,100934.23
2018-07-04T18:34:40.056Z,100942.11
2018-07-04T18:37:26.080Z,100946.25
2018-07-04T18:40:11.367Z,100948.23
2018-07-04T18:42:56.706Z,100955.73
2018-07-04T18:45:42.090Z,100950.84
2018-07-04T18:48:27.987Z,100954.17
2018-07-04T18:51:13.453Z,100950.86
2018-07-04T18:53:59.113Z,100944.23
2018-07-04T18:56:44.567Z,100946.77
2018-07-04T18:59:29.951Z,100941.91
2018-07-04T19:02:09.689Z,100938.39
2018-07-04T19:04:54.897Z,100942.34
2018-07-04T19:07:40.418Z,100944.52
2018-07-04T19:10:26.021Z,100948.05
2018-07-04T19:13:11.396Z,100945.11
2018-07-04T19:15:56.964Z,100946.84
2018-07-04T19:18:42.486Z,100937.30
2018-07-04T19:21:27.996Z,100942.38
2018-07-04T19:24:13.313Z,100945.70
2018-07-04T19:26:58.848Z,100955.48
2018-07-04T19:29:44.360Z,100956.45
2018-07-04T19:32:29.944Z,100960.55
2018-07-04T19:35:15.487Z,100973.44
2018-07-04T19:38:00.936Z,100974.83
2018-07-04T19:40:40.505Z,100978.34
2018-07-04T19:43:20.258Z,100977.54
2018-07-04T19:46:05.684Z,100978.28
2018-07-04T19:48:51.175Z,100976.90
2018-07-04T19:51:36.405Z,100975.33
2018-07-04T19:54:21.994Z,100976.70
2018-07-04T19:57:07.333Z,100976.06
2018-07-04T19:59:46.981Z,100980.18
2018-07-04T20:02:26.791Z,100986.77
2018-07-04T20:05:12.263Z,100989.48
2018-07-04T20:07:57.601Z,100987.09
2018-07-04T20:10:43.072Z,100984.73
2018-07-04T20:13:28.693Z,100974.92
2018-07-04T20:16:14.089Z,100969.83
2018-07-04T20:18:59.671Z,100969.79
2018-07-04T20:21:45.283Z,100973.48
2018-07-04T20:24:30.779Z,100970.92
2018-07-04T20:27:16.232Z,100959.96
2018-07-04T20:30:01.804Z,100966.01
2018-07-04T20:32:47.170Z,100967.52
2018-07-04T20:35:32.615Z,100965.14
2018-07-04T20:38:17.977Z,100967.66
2018-07-04T20:41:03.461Z,100963.35
2018-07-04T20:43:49.110Z,100953.58
2018-07-04T20:46:34.657Z,100956.31
2018-07-04T20:49:20.295Z,100957.08
2018-07-04T20:52:05.960Z,100959.20
2018-07-04T20:54:51.440Z,100960.57
2018-07-04T20:57:36.997Z,100957.05
2018-07-04T21:00:23.147Z,100954.48
2018-07-04T21:03:08.734Z,100951.57
2018-07-04T21:05:48.157Z,100947.61
2018-07-04T21:08:27.667Z,100951.67
2018-07-04T21:11:15.631Z,100957.55
2018-07-04T21:14:01.401Z,100965.55
2018-07-04T21:16:46.852Z,100969.17
2018-07-04T21:19:32.348Z,100982.56
2018-07-04T21:22:17.756Z,100982.34
2018-07-04T21:24:57.313Z,100995.03
2018-07-04T21:27:42.696Z,100994.42
2018-07-04T21:30:28.202Z,101002.80
2018-07-04T21:33:13.607Z,100998.45
2018-07-04T21:35:59.340Z,101015.77
2018-07-04T21:38:44.799Z,101029.03
2018-07-04T21:41:30.425Z,101036.04
2018-07-04T21:44:15.962Z,101035.02
2018-07-04T21:47:01.572Z,101042.25
2018-07-04T21:49:41.132Z,101046.91
2018-07-04T21:52:26.594Z,101036.54
2018-07-04T21:55:11.852Z,101039.45
2018-07-04T21:58:06.432Z,101032.11
2018-07-04T22:00:52.468Z,101026.05
2018-07-04T22:03:38.125Z,101035.13
2018-07-04T22:06:23.700Z,101032.59
2018-07-04T22:09:09.352Z,101033.31
2018-07-04T22:11:55.051Z,101027.22
2018-07-04T22:14:41.293Z,101031.68
2018-07-04T22:17:26.998Z,101033.13
2018-07-04T22:20:12.696Z,101029.98
2018-07-04T22:22:58.152Z,101033.64
2018-07-04T22:25:43.517Z,101039.63
2018-07-04T22:28:29.079Z,101040.16
2018-07-04T22:31:14.735Z,101045.83
2018-07-04T22:34:00.300Z,101039.72
2018-07-04T22:36:45.876Z,101046.69
2018-07-04T22:39:31.193Z,101041.70
2018-07-04T22:42:16.982Z,101032.73
2018-07-04T22:45:02.597Z,101032.31
2018-07-04T22:47:42.079Z,101028.46
2018-07-04T22:50:27.432Z,101032.45
2018-07-04T22:53:13.334Z,101034.66
2018-07-04T22:55:58.912Z,101040.05
2018-07-04T22:58:44.625Z,101033.81
2018-07-04T23:01:30.181Z,101038.84
2018-07-04T23:04:15.760Z,101038.16
2018-07-04T23:07:01.403Z,101035.19
2018-07-04T23:09:47.111Z,101023.86
2018-07-04T23:12:32.532Z,101025.73
2018-07-04T23:15:17.888Z,101020.54
2018-07-04T23:18:03.876Z,101020.84
2018-07-04T23:20:49.374Z,101025.44
2018-07-04T23:23:35.065Z,101017.85
2018-07-04T23:26:20.615Z,101010.17
2018-07-04T23:29:06.134Z,101011.91
2018-07-04T23:31:51.496Z,101015.81
2018-07-04T23:34:36.891Z,101014.91
2018-07-04T23:37:22.181Z,101011.31
2018-07-04T23:40:07.620Z,101011.13
2018-07-04T23:42:53.062Z,101004.59
2018-07-04T23:45:32.737Z,101011.62
2018-07-04T23:48:18.457Z,101012.42
2018-07-04T23:51:04.139Z,101009.10
2018-07-04T23:53:49.634Z,101005.45
2018-07-04T23:56:35.329Z,101009.95
2018-07-04T23:59:20.880Z,101005.02
